sensor_id;sensor_type;location;lat;lon;timestamp;P1;durP1;ratioP1;P2;durP2;ratioP2
7531;SDS011;3807;49.030;8.714;2023-03-12T00:01:33;8.47;;;5.17;;
7531;SDS011;3807;49.030;8.714;2023-03-12T00:04:02;8.23;;;5.10;;
7531;SDS011;3807;49.030;8.714;2023-03-12T00:06:27;9.60;;;5.33;;
7531;SDS011;3807;49.030;8.714;2023-03-12T00:08:53;10.07;;;5.50;;
7531;SDS011;3807;49.030;8.714;2023-03-12T00:11:19;9.40;;;5.07;;
7531;SDS011;3807;49.030;8.714;2023-03-12T00:13:51;8.80;;;5.30;;
7531;SDS011;3807;49.030;8.714;2023-03-12T00:16:17;9.60;;;5.70;;
7531;SDS011;3807;49.030;8.714;2023-03-12T00:18:43;9.77;;;5.23;;
7531;SDS011;3807;49.030;8.714;2023-03-12T00:21:12;8.83;;;5.27;;
7531;SDS011;3807;49.030;8.714;2023-03-12T00:23:38;7.93;;;5.13;;
7531;SDS011;3807;49.030;8.714;2023-03-12T00:26:04;7.40;;;4.97;;
7531;SDS011;3807;49.030;8.714;2023-03-12T00:28:32;8.53;;;5.03;;
7531;SDS011;3807;49.030;8.714;2023-03-12T00:30:58;7.70;;;4.93;;
7531;SDS011;3807;49.030;8.714;2023-03-12T00:33:24;9.50;;;4.80;;
7531;SDS011;3807;49.030;8.714;2023-03-12T00:35:51;7.83;;;4.27;;
7531;SDS011;3807;49.030;8.714;2023-03-12T00:38:17;5.87;;;4.20;;
7531;SDS011;3807;49.030;8.714;2023-03-12T00:40:43;7.07;;;4.33;;
7531;SDS011;3807;49.030;8.714;2023-03-12T00:43:08;6.33;;;4.37;;
7531;SDS011;3807;49.030;8.714;2023-03-12T00:45:33;6.03;;;4.27;;
7531;SDS011;3807;49.030;8.714;2023-03-12T00:47:59;8.23;;;4.30;;
7531;SDS011;3807;49.030;8.714;2023-03-12T00:50:24;7.20;;;4.17;;
7531;SDS011;3807;49.030;8.714;2023-03-12T00:52:50;9.43;;;4.47;;
7531;SDS011;3807;49.030;8.714;2023-03-12T00:55:15;5.93;;;4.13;;
7531;SDS011;3807;49.030;8.714;2023-03-12T00:57:41;6.93;;;4.00;;
7531;SDS011;3807;49.030;8.714;2023-03-12T01:00:06;11.00;;;5.00;;
7531;SDS011;3807;49.030;8.714;2023-03-12T01:02:36;8.20;;;4.00;;
7531;SDS011;3807;49.030;8.714;2023-03-12T01:05:03;7.20;;;4.10;;
7531;SDS011;3807;49.030;8.714;2023-03-12T01:07:30;9.13;;;4.40;;
7531;SDS011;3807;49.030;8.714;2023-03-12T01:09:56;6.30;;;4.23;;
7531;SDS011;3807;49.030;8.714;2023-03-12T01:12:21;7.07;;;4.60;;
7531;SDS011;3807;49.030;8.714;2023-03-12T01:14:47;4.83;;;3.90;;
7531;SDS011;3807;49.030;8.714;2023-03-12T01:17:12;10.07;;;4.60;;
7531;SDS011;3807;49.030;8.714;2023-03-12T01:19:37;10.37;;;4.47;;
7531;SDS011;3807;49.030;8.714;2023-03-12T01:22:03;9.07;;;4.93;;
7531;SDS011;3807;49.030;8.714;2023-03-12T01:24:28;8.50;;;4.80;;
7531;SDS011;3807;49.030;8.714;2023-03-12T01:26:54;9.10;;;4.20;;
7531;SDS011;3807;49.030;8.714;2023-03-12T01:29:20;7.10;;;4.70;;
7531;SDS011;3807;49.030;8.714;2023-03-12T01:31:46;10.60;;;4.53;;
7531;SDS011;3807;49.030;8.714;2023-03-12T01:34:11;8.83;;;4.90;;
7531;SDS011;3807;49.030;8.714;2023-03-12T01:36:36;9.67;;;4.83;;
7531;SDS011;3807;49.030;8.714;2023-03-12T01:39:02;9.70;;;4.70;;
7531;SDS011;3807;49.030;8.714;2023-03-12T01:41:28;7.83;;;4.63;;
7531;SDS011;3807;49.030;8.714;2023-03-12T01:43:56;9.37;;;4.50;;
7531;SDS011;3807;49.030;8.714;2023-03-12T01:46:30;9.73;;;5.20;;
7531;SDS011;3807;49.030;8.714;2023-03-12T01:49:12;9.03;;;5.00;;
7531;SDS011;3807;49.030;8.714;2023-03-12T01:54:18;6.17;;;4.00;;
7531;SDS011;3807;49.030;8.714;2023-03-12T01:56:57;7.90;;;4.50;;
7531;SDS011;3807;49.030;8.714;2023-03-12T01:59:30;7.17;;;4.23;;
7531;SDS011;3807;49.030;8.714;2023-03-12T02:02:00;9.63;;;4.80;;
7531;SDS011;3807;49.030;8.714;2023-03-12T02:04:26;13.20;;;4.97;;
7531;SDS011;3807;49.030;8.714;2023-03-12T02:07:09;11.37;;;5.27;;
7531;SDS011;3807;49.030;8.714;2023-03-12T02:09:40;7.23;;;4.30;;
7531;SDS011;3807;49.030;8.714;2023-03-12T02:12:07;5.50;;;4.37;;
7531;SDS011;3807;49.030;8.714;2023-03-12T02:14:33;9.80;;;4.40;;
7531;SDS011;3807;49.030;8.714;2023-03-12T02:16:58;9.50;;;5.70;;
7531;SDS011;3807;49.030;8.714;2023-03-12T02:22:07;6.77;;;4.30;;
7531;SDS011;3807;49.030;8.714;2023-03-12T02:24:42;8.37;;;4.73;;
7531;SDS011;3807;49.030;8.714;2023-03-12T02:27:12;10.73;;;5.53;;
7531;SDS011;3807;49.030;8.714;2023-03-12T02:29:39;11.83;;;6.10;;
7531;SDS011;3807;49.030;8.714;2023-03-12T02:32:06;12.60;;;5.37;;
7531;SDS011;3807;49.030;8.714;2023-03-12T02:34:33;7.90;;;5.30;;
7531;SDS011;3807;49.030;8.714;2023-03-12T02:37:00;10.37;;;5.63;;
7531;SDS011;3807;49.030;8.714;2023-03-12T02:39:25;8.80;;;4.70;;
7531;SDS011;3807;49.030;8.714;2023-03-12T02:41:53;10.27;;;5.87;;
7531;SDS011;3807;49.030;8.714;2023-03-12T02:44:22;8.37;;;5.30;;
7531;SDS011;3807;49.030;8.714;2023-03-12T02:46:55;12.10;;;5.77;;
7531;SDS011;3807;49.030;8.714;2023-03-12T02:49:22;7.50;;;4.93;;
7531;SDS011;3807;49.030;8.714;2023-03-12T02:51:50;11.93;;;4.73;;
7531;SDS011;3807;49.030;8.714;2023-03-12T02:54:16;9.47;;;5.57;;
7531;SDS011;3807;49.030;8.714;2023-03-12T02:56:42;14.17;;;4.60;;
7531;SDS011;3807;49.030;8.714;2023-03-12T02:59:08;11.20;;;4.97;;
7531;SDS011;3807;49.030;8.714;2023-03-12T03:01:34;7.80;;;4.80;;
7531;SDS011;3807;49.030;8.714;2023-03-12T03:04:01;7.67;;;4.90;;
7531;SDS011;3807;49.030;8.714;2023-03-12T03:06:27;8.30;;;4.70;;
7531;SDS011;3807;49.030;8.714;2023-03-12T03:08:53;7.73;;;5.03;;
7531;SDS011;3807;49.030;8.714;2023-03-12T03:11:19;11.47;;;4.30;;
7531;SDS011;3807;49.030;8.714;2023-03-12T03:13:48;9.07;;;4.57;;
7531;SDS011;3807;49.030;8.714;2023-03-12T03:16:14;8.30;;;4.30;;
7531;SDS011;3807;49.030;8.714;2023-03-12T03:18:39;11.60;;;5.13;;
7531;SDS011;3807;49.030;8.714;2023-03-12T03:21:06;8.87;;;4.47;;
7531;SDS011;3807;49.030;8.714;2023-03-12T03:23:33;9.40;;;4.63;;
7531;SDS011;3807;49.030;8.714;2023-03-12T03:25:59;9.70;;;5.00;;
7531;SDS011;3807;49.030;8.714;2023-03-12T03:28:25;7.03;;;4.40;;
7531;SDS011;3807;49.030;8.714;2023-03-12T03:30:52;7.00;;;4.73;;
7531;SDS011;3807;49.030;8.714;2023-03-12T03:33:18;8.13;;;4.27;;
7531;SDS011;3807;49.030;8.714;2023-03-12T03:35:44;8.10;;;4.83;;
7531;SDS011;3807;49.030;8.714;2023-03-12T03:38:09;7.20;;;4.17;;
7531;SDS011;3807;49.030;8.714;2023-03-12T03:40:34;6.93;;;4.57;;
7531;SDS011;3807;49.030;8.714;2023-03-12T03:43:00;6.53;;;3.93;;
7531;SDS011;3807;49.030;8.714;2023-03-12T03:45:25;6.63;;;3.80;;
7531;SDS011;3807;49.030;8.714;2023-03-12T03:47:50;9.07;;;4.83;;
7531;SDS011;3807;49.030;8.714;2023-03-12T03:50:16;8.03;;;4.20;;
7531;SDS011;3807;49.030;8.714;2023-03-12T03:52:41;7.17;;;4.17;;
7531;SDS011;3807;49.030;8.714;2023-03-12T03:55:07;9.37;;;4.43;;
7531;SDS011;3807;49.030;8.714;2023-03-12T03:57:32;8.67;;;3.77;;
7531;SDS011;3807;49.030;8.714;2023-03-12T03:59:58;10.63;;;4.10;;
7531;SDS011;3807;49.030;8.714;2023-03-12T04:02:24;6.30;;;4.37;;
7531;SDS011;3807;49.030;8.714;2023-03-12T04:04:50;5.77;;;4.00;;
7531;SDS011;3807;49.030;8.714;2023-03-12T04:07:17;9.67;;;4.67;;
7531;SDS011;3807;49.030;8.714;2023-03-12T04:09:42;8.80;;;3.90;;
7531;SDS011;3807;49.030;8.714;2023-03-12T04:12:07;11.03;;;4.30;;
7531;SDS011;3807;49.030;8.714;2023-03-12T04:14:33;5.93;;;4.17;;
7531;SDS011;3807;49.030;8.714;2023-03-12T04:16:58;6.33;;;4.57;;
7531;SDS011;3807;49.030;8.714;2023-03-12T04:19:24;5.97;;;3.90;;
7531;SDS011;3807;49.030;8.714;2023-03-12T04:21:49;6.47;;;3.93;;
7531;SDS011;3807;49.030;8.714;2023-03-12T04:24:15;8.17;;;4.00;;
7531;SDS011;3807;49.030;8.714;2023-03-12T04:26:41;10.27;;;4.53;;
7531;SDS011;3807;49.030;8.714;2023-03-12T04:29:07;6.97;;;3.93;;
7531;SDS011;3807;49.030;8.714;2023-03-12T04:31:32;6.43;;;3.60;;
7531;SDS011;3807;49.030;8.714;2023-03-12T04:33:58;6.27;;;4.03;;
7531;SDS011;3807;49.030;8.714;2023-03-12T04:36:23;7.23;;;4.00;;
7531;SDS011;3807;49.030;8.714;2023-03-12T04:38:49;5.90;;;4.10;;
7531;SDS011;3807;49.030;8.714;2023-03-12T04:41:15;6.37;;;3.87;;
7531;SDS011;3807;49.030;8.714;2023-03-12T04:43:40;6.40;;;4.20;;
7531;SDS011;3807;49.030;8.714;2023-03-12T04:46:06;10.10;;;3.80;;
7531;SDS011;3807;49.030;8.714;2023-03-12T04:48:32;5.87;;;3.97;;
7531;SDS011;3807;49.030;8.714;2023-03-12T04:50:58;6.57;;;4.00;;
7531;SDS011;3807;49.030;8.714;2023-03-12T04:53:24;5.27;;;3.70;;
7531;SDS011;3807;49.030;8.714;2023-03-12T04:55:49;6.27;;;3.83;;
7531;SDS011;3807;49.030;8.714;2023-03-12T04:58:15;4.97;;;3.63;;
7531;SDS011;3807;49.030;8.714;2023-03-12T05:00:41;6.73;;;4.23;;
7531;SDS011;3807;49.030;8.714;2023-03-12T05:03:06;7.83;;;4.00;;
7531;SDS011;3807;49.030;8.714;2023-03-12T05:05:32;5.37;;;3.53;;
7531;SDS011;3807;49.030;8.714;2023-03-12T05:07:58;10.13;;;3.87;;
7531;SDS011;3807;49.030;8.714;2023-03-12T05:10:23;5.53;;;3.80;;
7531;SDS011;3807;49.030;8.714;2023-03-12T05:12:49;7.03;;;3.93;;
7531;SDS011;3807;49.030;8.714;2023-03-12T05:15:14;6.43;;;4.40;;
7531;SDS011;3807;49.030;8.714;2023-03-12T05:17:41;9.77;;;4.47;;
7531;SDS011;3807;49.030;8.714;2023-03-12T05:20:07;7.30;;;3.80;;
7531;SDS011;3807;49.030;8.714;2023-03-12T05:22:33;8.43;;;4.30;;
7531;SDS011;3807;49.030;8.714;2023-03-12T05:24:59;7.30;;;4.43;;
7531;SDS011;3807;49.030;8.714;2023-03-12T05:27:24;7.53;;;4.27;;
7531;SDS011;3807;49.030;8.714;2023-03-12T05:29:50;7.70;;;4.47;;
7531;SDS011;3807;49.030;8.714;2023-03-12T05:32:16;8.07;;;4.13;;
7531;SDS011;3807;49.030;8.714;2023-03-12T05:34:41;5.30;;;4.00;;
7531;SDS011;3807;49.030;8.714;2023-03-12T05:37:07;4.47;;;3.30;;
7531;SDS011;3807;49.030;8.714;2023-03-12T05:39:32;6.90;;;4.20;;
7531;SDS011;3807;49.030;8.714;2023-03-12T05:41:57;6.40;;;4.00;;
7531;SDS011;3807;49.030;8.714;2023-03-12T05:44:24;6.90;;;4.20;;
7531;SDS011;3807;49.030;8.714;2023-03-12T05:46:50;6.30;;;4.30;;
7531;SDS011;3807;49.030;8.714;2023-03-12T05:49:16;7.43;;;4.10;;
7531;SDS011;3807;49.030;8.714;2023-03-12T05:51:42;6.33;;;4.23;;
7531;SDS011;3807;49.030;8.714;2023-03-12T05:54:08;5.20;;;3.63;;
7531;SDS011;3807;49.030;8.714;2023-03-12T05:56:35;7.77;;;4.93;;
7531;SDS011;3807;49.030;8.714;2023-03-12T05:59:01;9.33;;;4.40;;
7531;SDS011;3807;49.030;8.714;2023-03-12T06:01:27;7.37;;;4.00;;
7531;SDS011;3807;49.030;8.714;2023-03-12T06:03:53;3.97;;;3.40;;
7531;SDS011;3807;49.030;8.714;2023-03-12T06:06:19;13.83;;;4.27;;
7531;SDS011;3807;49.030;8.714;2023-03-12T06:08:45;8.73;;;4.47;;
7531;SDS011;3807;49.030;8.714;2023-03-12T06:11:10;8.57;;;4.10;;
7531;SDS011;3807;49.030;8.714;2023-03-12T06:13:36;8.80;;;4.30;;
7531;SDS011;3807;49.030;8.714;2023-03-12T06:16:02;7.17;;;3.70;;
7531;SDS011;3807;49.030;8.714;2023-03-12T06:18:32;11.67;;;3.60;;
7531;SDS011;3807;49.030;8.714;2023-03-12T06:23:44;8.57;;;4.27;;
7531;SDS011;3807;49.030;8.714;2023-03-12T06:26:10;8.23;;;4.60;;
7531;SDS011;3807;49.030;8.714;2023-03-12T06:28:36;9.43;;;5.17;;
7531;SDS011;3807;49.030;8.714;2023-03-12T06:31:02;8.20;;;4.63;;
7531;SDS011;3807;49.030;8.714;2023-03-12T06:33:27;11.57;;;5.50;;
7531;SDS011;3807;49.030;8.714;2023-03-12T06:35:53;8.50;;;4.77;;
7531;SDS011;3807;49.030;8.714;2023-03-12T06:38:20;11.33;;;4.60;;
7531;SDS011;3807;49.030;8.714;2023-03-12T06:40:55;8.60;;;4.70;;
7531;SDS011;3807;49.030;8.714;2023-03-12T06:43:22;8.60;;;4.57;;
7531;SDS011;3807;49.030;8.714;2023-03-12T06:45:49;9.27;;;4.53;;
7531;SDS011;3807;49.030;8.714;2023-03-12T06:48:14;9.57;;;5.17;;
7531;SDS011;3807;49.030;8.714;2023-03-12T06:50:40;7.97;;;4.40;;
7531;SDS011;3807;49.030;8.714;2023-03-12T06:53:05;10.73;;;5.53;;
7531;SDS011;3807;49.030;8.714;2023-03-12T06:55:30;6.57;;;4.17;;
7531;SDS011;3807;49.030;8.714;2023-03-12T06:57:55;5.97;;;4.57;;
7531;SDS011;3807;49.030;8.714;2023-03-12T07:00:21;6.47;;;4.43;;
7531;SDS011;3807;49.030;8.714;2023-03-12T07:02:46;6.47;;;4.33;;
7531;SDS011;3807;49.030;8.714;2023-03-12T07:05:12;6.37;;;5.07;;
7531;SDS011;3807;49.030;8.714;2023-03-12T07:07:37;7.57;;;4.40;;
7531;SDS011;3807;49.030;8.714;2023-03-12T07:10:03;7.63;;;5.80;;
7531;SDS011;3807;49.030;8.714;2023-03-12T07:12:30;11.23;;;5.33;;
7531;SDS011;3807;49.030;8.714;2023-03-12T07:14:56;7.60;;;4.23;;
7531;SDS011;3807;49.030;8.714;2023-03-12T07:17:22;7.67;;;4.67;;
7531;SDS011;3807;49.030;8.714;2023-03-12T07:19:49;7.50;;;5.30;;
7531;SDS011;3807;49.030;8.714;2023-03-12T07:22:15;8.03;;;5.10;;
7531;SDS011;3807;49.030;8.714;2023-03-12T07:24:41;10.93;;;4.97;;
7531;SDS011;3807;49.030;8.714;2023-03-12T07:27:06;8.77;;;5.37;;
7531;SDS011;3807;49.030;8.714;2023-03-12T07:29:31;6.33;;;4.40;;
7531;SDS011;3807;49.030;8.714;2023-03-12T07:31:57;7.63;;;4.80;;
7531;SDS011;3807;49.030;8.714;2023-03-12T07:34:22;7.77;;;5.03;;
7531;SDS011;3807;49.030;8.714;2023-03-12T07:36:47;10.13;;;5.10;;
7531;SDS011;3807;49.030;8.714;2023-03-12T07:39:12;8.30;;;4.30;;
7531;SDS011;3807;49.030;8.714;2023-03-12T07:41:38;9.00;;;5.40;;
7531;SDS011;3807;49.030;8.714;2023-03-12T07:44:03;8.93;;;4.90;;
7531;SDS011;3807;49.030;8.714;2023-03-12T07:46:29;7.60;;;4.97;;
7531;SDS011;3807;49.030;8.714;2023-03-12T07:48:55;9.63;;;4.63;;
7531;SDS011;3807;49.030;8.714;2023-03-12T07:51:20;8.93;;;5.20;;
7531;SDS011;3807;49.030;8.714;2023-03-12T07:53:45;8.87;;;5.57;;
7531;SDS011;3807;49.030;8.714;2023-03-12T07:56:11;9.13;;;5.47;;
7531;SDS011;3807;49.030;8.714;2023-03-12T07:58:36;8.13;;;5.40;;
7531;SDS011;3807;49.030;8.714;2023-03-12T08:01:03;11.50;;;5.20;;
7531;SDS011;3807;49.030;8.714;2023-03-12T08:03:30;10.17;;;4.73;;
7531;SDS011;3807;49.030;8.714;2023-03-12T08:05:57;10.03;;;5.90;;
7531;SDS011;3807;49.030;8.714;2023-03-12T08:08:23;8.70;;;5.47;;
7531;SDS011;3807;49.030;8.714;2023-03-12T08:10:49;10.33;;;6.47;;
7531;SDS011;3807;49.030;8.714;2023-03-12T08:13:14;10.37;;;7.20;;
7531;SDS011;3807;49.030;8.714;2023-03-12T08:15:39;14.60;;;6.97;;
7531;SDS011;3807;49.030;8.714;2023-03-12T08:18:05;7.13;;;4.20;;
7531;SDS011;3807;49.030;8.714;2023-03-12T08:20:30;9.30;;;7.03;;
7531;SDS011;3807;49.030;8.714;2023-03-12T08:22:56;7.60;;;4.87;;
7531;SDS011;3807;49.030;8.714;2023-03-12T08:25:21;7.93;;;4.37;;
7531;SDS011;3807;49.030;8.714;2023-03-12T08:27:48;6.67;;;4.67;;
7531;SDS011;3807;49.030;8.714;2023-03-12T08:30:13;10.63;;;6.00;;
7531;SDS011;3807;49.030;8.714;2023-03-12T08:32:39;9.00;;;5.57;;
7531;SDS011;3807;49.030;8.714;2023-03-12T08:35:04;9.63;;;6.50;;
7531;SDS011;3807;49.030;8.714;2023-03-12T08:37:30;12.73;;;6.67;;
7531;SDS011;3807;49.030;8.714;2023-03-12T08:39:55;10.87;;;6.50;;
7531;SDS011;3807;49.030;8.714;2023-03-12T08:42:21;10.63;;;7.17;;
7531;SDS011;3807;49.030;8.714;2023-03-12T08:44:47;8.10;;;6.07;;
7531;SDS011;3807;49.030;8.714;2023-03-12T08:47:12;16.77;;;8.77;;
7531;SDS011;3807;49.030;8.714;2023-03-12T08:49:37;12.30;;;8.10;;
7531;SDS011;3807;49.030;8.714;2023-03-12T08:52:03;10.87;;;6.57;;
7531;SDS011;3807;49.030;8.714;2023-03-12T08:54:28;11.53;;;7.23;;
7531;SDS011;3807;49.030;8.714;2023-03-12T08:56:53;15.13;;;7.80;;
7531;SDS011;3807;49.030;8.714;2023-03-12T08:59:19;9.73;;;7.43;;
7531;SDS011;3807;49.030;8.714;2023-03-12T09:01:46;11.67;;;7.20;;
7531;SDS011;3807;49.030;8.714;2023-03-12T09:04:11;12.70;;;6.50;;
7531;SDS011;3807;49.030;8.714;2023-03-12T09:06:37;11.40;;;7.30;;
7531;SDS011;3807;49.030;8.714;2023-03-12T09:09:02;11.40;;;7.90;;
7531;SDS011;3807;49.030;8.714;2023-03-12T09:11:29;9.60;;;7.70;;
7531;SDS011;3807;49.030;8.714;2023-03-12T09:13:56;8.00;;;5.67;;
7531;SDS011;3807;49.030;8.714;2023-03-12T09:16:22;11.13;;;6.67;;
7531;SDS011;3807;49.030;8.714;2023-03-12T09:18:47;8.43;;;6.40;;
7531;SDS011;3807;49.030;8.714;2023-03-12T09:21:13;10.77;;;6.87;;
7531;SDS011;3807;49.030;8.714;2023-03-12T09:23:38;12.20;;;9.47;;
7531;SDS011;3807;49.030;8.714;2023-03-12T09:26:07;11.07;;;8.60;;
7531;SDS011;3807;49.030;8.714;2023-03-12T09:28:33;14.40;;;9.40;;
7531;SDS011;3807;49.030;8.714;2023-03-12T09:31:00;12.40;;;8.60;;
7531;SDS011;3807;49.030;8.714;2023-03-12T09:33:26;17.73;;;9.33;;
7531;SDS011;3807;49.030;8.714;2023-03-12T09:35:58;9.60;;;7.40;;
7531;SDS011;3807;49.030;8.714;2023-03-12T09:38:24;11.87;;;8.30;;
7531;SDS011;3807;49.030;8.714;2023-03-12T09:40:50;15.93;;;9.83;;
7531;SDS011;3807;49.030;8.714;2023-03-12T09:43:17;15.43;;;8.40;;
7531;SDS011;3807;49.030;8.714;2023-03-12T09:45:50;12.83;;;7.77;;
7531;SDS011;3807;49.030;8.714;2023-03-12T09:48:18;12.13;;;7.70;;
7531;SDS011;3807;49.030;8.714;2023-03-12T09:50:52;12.47;;;8.17;;
7531;SDS011;3807;49.030;8.714;2023-03-12T09:53:26;11.80;;;7.07;;
7531;SDS011;3807;49.030;8.714;2023-03-12T09:55:57;11.10;;;8.60;;
7531;SDS011;3807;49.030;8.714;2023-03-12T09:58:28;7.77;;;5.37;;
7531;SDS011;3807;49.030;8.714;2023-03-12T10:01:05;12.30;;;7.83;;
7531;SDS011;3807;49.030;8.714;2023-03-12T10:06:52;10.40;;;7.00;;
7531;SDS011;3807;49.030;8.714;2023-03-12T10:12:04;9.63;;;6.40;;
7531;SDS011;3807;49.030;8.714;2023-03-12T10:14:55;11.70;;;6.40;;
7531;SDS011;3807;49.030;8.714;2023-03-12T10:22:59;12.70;;;7.27;;
7531;SDS011;3807;49.030;8.714;2023-03-12T10:30:49;10.30;;;6.37;;
7531;SDS011;3807;49.030;8.714;2023-03-12T10:33:19;15.77;;;6.73;;
7531;SDS011;3807;49.030;8.714;2023-03-12T10:35:46;13.03;;;7.73;;
7531;SDS011;3807;49.030;8.714;2023-03-12T10:38:14;8.33;;;6.67;;
7531;SDS011;3807;49.030;8.714;2023-03-12T10:40:42;11.13;;;7.73;;
7531;SDS011;3807;49.030;8.714;2023-03-12T10:43:07;13.60;;;7.97;;
7531;SDS011;3807;49.030;8.714;2023-03-12T10:48:21;14.43;;;9.17;;
7531;SDS011;3807;49.030;8.714;2023-03-12T10:50:59;11.30;;;7.10;;
7531;SDS011;3807;49.030;8.714;2023-03-12T10:53:33;14.07;;;7.33;;
7531;SDS011;3807;49.030;8.714;2023-03-12T10:56:16;12.90;;;7.87;;
7531;SDS011;3807;49.030;8.714;2023-03-12T10:58:44;13.43;;;8.77;;
7531;SDS011;3807;49.030;8.714;2023-03-12T11:03:39;16.27;;;8.40;;
7531;SDS011;3807;49.030;8.714;2023-03-12T11:06:05;16.13;;;9.33;;
7531;SDS011;3807;49.030;8.714;2023-03-12T11:08:34;16.97;;;9.30;;
7531;SDS011;3807;49.030;8.714;2023-03-12T11:11:02;17.87;;;9.40;;
7531;SDS011;3807;49.030;8.714;2023-03-12T11:15:57;17.30;;;5.83;;
7531;SDS011;3807;49.030;8.714;2023-03-12T11:18:26;10.20;;;4.93;;
7531;SDS011;3807;49.030;8.714;2023-03-12T11:20:54;18.40;;;7.43;;
7531;SDS011;3807;49.030;8.714;2023-03-12T11:23:23;14.03;;;6.77;;
7531;SDS011;3807;49.030;8.714;2023-03-12T11:25:56;8.93;;;4.53;;
7531;SDS011;3807;49.030;8.714;2023-03-12T11:28:27;21.90;;;8.17;;
7531;SDS011;3807;49.030;8.714;2023-03-12T11:30:59;20.23;;;8.27;;
7531;SDS011;3807;49.030;8.714;2023-03-12T11:33:25;13.50;;;5.10;;
7531;SDS011;3807;49.030;8.714;2023-03-12T11:39:01;9.33;;;4.17;;
7531;SDS011;3807;49.030;8.714;2023-03-12T11:49:46;13.23;;;4.93;;
7531;SDS011;3807;49.030;8.714;2023-03-12T11:52:25;16.20;;;6.13;;
7531;SDS011;3807;49.030;8.714;2023-03-12T11:55:02;11.77;;;4.50;;
7531;SDS011;3807;49.030;8.714;2023-03-12T12:00:15;18.37;;;5.10;;
7531;SDS011;3807;49.030;8.714;2023-03-12T12:05:37;16.03;;;4.87;;
7531;SDS011;3807;49.030;8.714;2023-03-12T12:13:32;12.07;;;3.83;;
7531;SDS011;3807;49.030;8.714;2023-03-12T12:27:19;14.73;;;4.53;;
7531;SDS011;3807;49.030;8.714;2023-03-12T12:35:39;4.93;;;3.30;;
7531;SDS011;3807;49.030;8.714;2023-03-12T12:41:07;7.87;;;2.67;;
7531;SDS011;3807;49.030;8.714;2023-03-12T12:43:40;8.83;;;3.53;;
7531;SDS011;3807;49.030;8.714;2023-03-12T12:46:17;11.03;;;4.27;;
7531;SDS011;3807;49.030;8.714;2023-03-12T12:48:53;5.83;;;2.60;;
7531;SDS011;3807;49.030;8.714;2023-03-12T12:51:24;10.17;;;3.17;;
7531;SDS011;3807;49.030;8.714;2023-03-12T12:53:58;9.00;;;3.67;;
7531;SDS011;3807;49.030;8.714;2023-03-12T13:01:37;9.70;;;2.67;;
7531;SDS011;3807;49.030;8.714;2023-03-12T13:04:04;15.57;;;4.17;;
7531;SDS011;3807;49.030;8.714;2023-03-12T13:12:06;8.50;;;2.57;;
7531;SDS011;3807;49.030;8.714;2023-03-12T13:14:52;4.50;;;2.13;;
7531;SDS011;3807;49.030;8.714;2023-03-12T13:17:57;8.03;;;2.97;;
7531;SDS011;3807;49.030;8.714;2023-03-12T13:21:14;8.17;;;3.07;;
7531;SDS011;3807;49.030;8.714;2023-03-12T13:28:32;8.10;;;2.83;;
7531;SDS011;3807;49.030;8.714;2023-03-12T13:31:32;5.60;;;2.20;;
7531;SDS011;3807;49.030;8.714;2023-03-12T13:33:49;12.73;;;3.00;;
7531;SDS011;3807;49.030;8.714;2023-03-12T13:39:00;7.47;;;2.70;;
7531;SDS011;3807;49.030;8.714;2023-03-12T13:41:46;6.33;;;2.00;;
7531;SDS011;3807;49.030;8.714;2023-03-12T13:49:21;13.57;;;3.57;;
7531;SDS011;3807;49.030;8.714;2023-03-12T13:54:47;4.13;;;2.07;;
7531;SDS011;3807;49.030;8.714;2023-03-12T13:57:32;10.87;;;3.00;;
7531;SDS011;3807;49.030;8.714;2023-03-12T13:59:58;11.13;;;3.13;;
7531;SDS011;3807;49.030;8.714;2023-03-12T14:02:29;11.73;;;3.17;;
7531;SDS011;3807;49.030;8.714;2023-03-12T14:05:17;12.20;;;3.53;;
7531;SDS011;3807;49.030;8.714;2023-03-12T14:17:43;11.90;;;3.97;;
7531;SDS011;3807;49.030;8.714;2023-03-12T14:20:10;10.93;;;2.83;;
7531;SDS011;3807;49.030;8.714;2023-03-12T14:22:44;16.20;;;3.70;;
7531;SDS011;3807;49.030;8.714;2023-03-12T14:25:31;8.93;;;2.73;;
7531;SDS011;3807;49.030;8.714;2023-03-12T14:28:01;9.13;;;2.77;;
7531;SDS011;3807;49.030;8.714;2023-03-12T14:33:14;12.33;;;2.60;;
7531;SDS011;3807;49.030;8.714;2023-03-12T14:35:44;9.10;;;2.40;;
7531;SDS011;3807;49.030;8.714;2023-03-12T14:43:31;12.83;;;2.83;;
7531;SDS011;3807;49.030;8.714;2023-03-12T14:46:03;7.40;;;1.73;;
7531;SDS011;3807;49.030;8.714;2023-03-12T14:48:31;9.97;;;2.50;;
7531;SDS011;3807;49.030;8.714;2023-03-12T14:50:59;9.87;;;2.30;;
7531;SDS011;3807;49.030;8.714;2023-03-12T14:53:35;7.53;;;2.40;;
7531;SDS011;3807;49.030;8.714;2023-03-12T14:56:12;3.43;;;1.53;;
7531;SDS011;3807;49.030;8.714;2023-03-12T14:58:45;15.07;;;3.97;;
7531;SDS011;3807;49.030;8.714;2023-03-12T15:01:19;10.63;;;2.97;;
7531;SDS011;3807;49.030;8.714;2023-03-12T15:03:51;6.33;;;1.83;;
7531;SDS011;3807;49.030;8.714;2023-03-12T15:09:28;10.93;;;2.63;;
7531;SDS011;3807;49.030;8.714;2023-03-12T15:11:57;9.47;;;2.50;;
7531;SDS011;3807;49.030;8.714;2023-03-12T15:14:26;6.93;;;2.67;;
7531;SDS011;3807;49.030;8.714;2023-03-12T15:16:54;9.13;;;2.57;;
7531;SDS011;3807;49.030;8.714;2023-03-12T15:19:23;14.00;;;2.97;;
7531;SDS011;3807;49.030;8.714;2023-03-12T15:21:55;15.87;;;3.10;;
7531;SDS011;3807;49.030;8.714;2023-03-12T15:24:21;10.60;;;3.40;;
7531;SDS011;3807;49.030;8.714;2023-03-12T15:26:46;9.47;;;2.30;;
7531;SDS011;3807;49.030;8.714;2023-03-12T15:29:20;11.27;;;2.80;;
7531;SDS011;3807;49.030;8.714;2023-03-12T15:31:53;14.63;;;3.50;;
7531;SDS011;3807;49.030;8.714;2023-03-12T15:36:57;12.70;;;2.90;;
7531;SDS011;3807;49.030;8.714;2023-03-12T15:42:00;11.70;;;2.63;;
7531;SDS011;3807;49.030;8.714;2023-03-12T15:44:51;13.97;;;2.73;;
7531;SDS011;3807;49.030;8.714;2023-03-12T15:47:20;7.33;;;2.43;;
7531;SDS011;3807;49.030;8.714;2023-03-12T15:50:01;11.93;;;2.50;;
7531;SDS011;3807;49.030;8.714;2023-03-12T15:52:36;11.53;;;1.93;;
7531;SDS011;3807;49.030;8.714;2023-03-12T15:57:52;5.77;;;2.20;;
7531;SDS011;3807;49.030;8.714;2023-03-12T16:05:21;13.93;;;3.17;;
7531;SDS011;3807;49.030;8.714;2023-03-12T16:07:49;11.80;;;2.57;;
7531;SDS011;3807;49.030;8.714;2023-03-12T16:10:15;11.13;;;2.60;;
7531;SDS011;3807;49.030;8.714;2023-03-12T16:12:43;8.50;;;2.40;;
7531;SDS011;3807;49.030;8.714;2023-03-12T16:15:19;10.80;;;2.80;;
7531;SDS011;3807;49.030;8.714;2023-03-12T16:17:49;11.13;;;2.53;;
7531;SDS011;3807;49.030;8.714;2023-03-12T16:20:15;17.40;;;3.30;;
7531;SDS011;3807;49.030;8.714;2023-03-12T16:22:41;8.00;;;2.20;;
7531;SDS011;3807;49.030;8.714;2023-03-12T16:25:07;9.67;;;2.73;;
7531;SDS011;3807;49.030;8.714;2023-03-12T16:27:33;8.60;;;2.47;;
7531;SDS011;3807;49.030;8.714;2023-03-12T16:30:04;8.53;;;3.07;;
7531;SDS011;3807;49.030;8.714;2023-03-12T16:32:40;14.27;;;2.80;;
7531;SDS011;3807;49.030;8.714;2023-03-12T16:35:13;13.60;;;3.07;;
7531;SDS011;3807;49.030;8.714;2023-03-12T16:37:40;6.00;;;2.63;;
7531;SDS011;3807;49.030;8.714;2023-03-12T16:40:05;8.83;;;2.50;;
7531;SDS011;3807;49.030;8.714;2023-03-12T16:42:31;7.30;;;2.10;;
7531;SDS011;3807;49.030;8.714;2023-03-12T16:44:58;9.40;;;2.67;;
7531;SDS011;3807;49.030;8.714;2023-03-12T16:47:24;9.30;;;3.10;;
7531;SDS011;3807;49.030;8.714;2023-03-12T16:49:49;10.17;;;2.90;;
7531;SDS011;3807;49.030;8.714;2023-03-12T16:52:19;13.27;;;2.90;;
7531;SDS011;3807;49.030;8.714;2023-03-12T16:54:49;12.77;;;3.90;;
7531;SDS011;3807;49.030;8.714;2023-03-12T16:57:19;11.33;;;2.47;;
7531;SDS011;3807;49.030;8.714;2023-03-12T16:59:56;12.13;;;3.43;;
7531;SDS011;3807;49.030;8.714;2023-03-12T17:02:21;13.33;;;3.67;;
7531;SDS011;3807;49.030;8.714;2023-03-12T17:04:47;15.80;;;3.33;;
7531;SDS011;3807;49.030;8.714;2023-03-12T17:07:13;15.07;;;2.90;;
7531;SDS011;3807;49.030;8.714;2023-03-12T17:09:39;10.77;;;2.87;;
7531;SDS011;3807;49.030;8.714;2023-03-12T17:12:12;12.33;;;3.50;;
7531;SDS011;3807;49.030;8.714;2023-03-12T17:14:44;7.43;;;2.50;;
7531;SDS011;3807;49.030;8.714;2023-03-12T17:17:09;17.10;;;3.13;;
7531;SDS011;3807;49.030;8.714;2023-03-12T17:19:35;12.90;;;2.80;;
7531;SDS011;3807;49.030;8.714;2023-03-12T17:22:00;8.80;;;2.63;;
7531;SDS011;3807;49.030;8.714;2023-03-12T17:24:25;13.50;;;3.17;;
7531;SDS011;3807;49.030;8.714;2023-03-12T17:26:52;16.57;;;3.00;;
7531;SDS011;3807;49.030;8.714;2023-03-12T17:29:17;14.27;;;3.73;;
7531;SDS011;3807;49.030;8.714;2023-03-12T17:31:43;15.93;;;4.33;;